Time;durP1;ratioP1;P1;durP2;ratioP2;P2;SDS_P1;SDS_P2;PMS_P1;PMS_P2;Temp;Humidity;BMP_temperature;BMP_pressure;BME280_temperature;BME280_humidity;BME280_pressure;Samples;Min_cycle;Max_cycle;Signal;HPM_P1;HPM_P2
2022/10/24 00:02:03;;;;;;;7.47;4.90;;;13.10;99.90;;;;;;5030205;28;20509;-52
2022/10/24 00:04:35;;;;;;;6.90;5.00;;;13.10;99.90;;;;;;5031614;28;21006;-52
2022/10/24 00:07:01;;;;;;;16.53;10.23;;;13.10;99.90;;;;;;5029553;28;20494;-52
2022/10/24 00:09:28;;;;;;;14.77;8.07;;;13.10;92.40;;;;;;5034657;28;20928;-53
2022/10/24 00:11:54;;;;;;;13.73;9.47;;;13.10;86.80;;;;;;5026655;28;20490;-52
2022/10/24 00:14:21;;;;;;;13.30;9.47;;;13.00;81.50;;;;;;5029495;28;20875;-52
2022/10/24 00:16:48;;;;;;;22.50;14.57;;;13.00;76.90;;;;;;5030660;28;20491;-52
2022/10/24 00:19:14;;;;;;;14.50;7.80;;;13.00;71.60;;;;;;5027477;28;20458;-53
2022/10/24 00:21:42;;;;;;;8.90;5.13;;;12.90;67.00;;;;;;5029314;28;20471;-53
2022/10/24 00:24:09;;;;;;;7.50;5.50;;;12.90;64.00;;;;;;5032975;28;20462;-53
2022/10/24 00:26:36;;;;;;;7.97;4.60;;;12.90;59.50;;;;;;5027507;28;21081;-54
2022/10/24 00:29:03;;;;;;;5.63;5.13;;;12.90;56.30;;;;;;5024990;28;20593;-54
2022/10/24 00:31:30;;;;;;;6.67;4.93;;;12.90;54.50;;;;;;5030076;28;20454;-52
2022/10/24 00:33:58;;;;;;;5.80;4.80;;;12.90;50.50;;;;;;5028603;28;20483;-54
2022/10/24 00:36:26;;;;;;;6.53;4.90;;;12.90;47.80;;;;;;5021983;28;20479;-53
2022/10/24 00:38:55;;;;;;;5.10;4.60;;;12.90;46.20;;;;;;5027193;28;20466;-59
2022/10/24 00:41:24;;;;;;;5.70;5.20;;;12.80;43.50;;;;;;5025446;28;20450;-53
2022/10/24 00:44:11;;;;;;;9.10;5.03;;;12.80;39.90;;;;;;5029811;28;20451;-53
2022/10/24 00:46:39;;;;;;;6.37;5.00;;;12.80;40.20;;;;;;5022663;28;20532;-54
2022/10/24 00:49:05;;;;;;;6.90;5.23;;;12.80;38.50;;;;;;5027222;28;20468;-53
2022/10/24 00:51:34;;;;;;;5.60;4.67;;;12.80;36.40;;;;;;5027708;28;20482;-53
2022/10/24 00:54:06;;;;;;;14.87;5.60;;;12.80;34.40;;;;;;5029533;28;20487;-53
2022/10/24 00:56:37;;;;;;;6.60;5.07;;;12.80;32.80;;;;;;5030587;28;20482;-54
2022/10/24 00:59:07;;;;;;;9.23;5.27;;;12.80;31.40;;;;;;5025334;28;20508;-52
2022/10/24 01:01:34;;;;;;;9.13;5.53;;;12.80;32.80;;;;;;5027699;22;20538;-52
2022/10/24 01:04:01;;;;;;;6.70;4.60;;;12.80;30.80;;;;;;5006085;28;20938;-51
2022/10/24 01:06:37;;;;;;;5.57;4.67;;;12.80;29.70;;;;;;5006963;28;20460;-51
2022/10/24 01:09:14;;;;;;;7.70;5.00;;;12.80;27.40;;;;;;5010187;28;20526;-51
2022/10/24 01:11:52;;;;;;;10.50;5.00;;;12.80;28.80;;;;;;5012636;28;20475;-52
2022/10/24 01:14:32;;;;;;;7.10;5.90;;;12.80;28.20;;;;;;5012091;28;21018;-51
2022/10/24 01:17:07;;;;;;;8.57;5.93;;;12.80;26.80;;;;;;5010567;28;20522;-52
2022/10/24 01:19:59;;;;;;;6.60;5.20;;;12.80;27.40;;;;;;5010072;28;20466;-51
2022/10/24 01:22:32;;;;;;;5.93;5.43;;;12.90;25.60;;;;;;5010498;28;20487;-53
2022/10/24 01:25:12;;;;;;;9.97;5.53;;;12.90;26.40;;;;;;5011511;28;20514;-51
2022/10/24 01:27:53;;;;;;;7.40;5.83;;;12.90;24.10;;;;;;5006535;28;20953;-51
2022/10/24 01:30:21;;;;;;;10.90;5.43;;;12.90;22.90;;;;;;5007108;28;20478;-51
2022/10/24 01:32:57;;;;;;;9.33;5.47;;;12.90;22.20;;;;;;5007957;28;20491;-51
2022/10/24 01:35:34;;;;;;;8.30;5.10;;;13.00;24.00;;;;;;5010538;28;20529;-51
2022/10/24 01:38:07;;;;;;;6.80;5.40;;;13.00;24.50;;;;;;5010856;28;20470;-52
2022/10/24 01:40:38;;;;;;;11.40;5.30;;;13.00;20.40;;;;;;5011778;28;20484;-51
2022/10/24 01:43:10;;;;;;;6.27;5.57;;;12.90;23.40;;;;;;5010335;28;20455;-51
2022/10/24 01:45:41;;;;;;;7.47;5.03;;;12.90;22.20;;;;;;5010915;28;20470;-51
2022/10/24 01:48:13;;;;;;;8.50;5.33;;;13.00;23.30;;;;;;5009141;28;20471;-52
2022/10/24 01:50:43;;;;;;;5.87;5.13;;;13.00;21.60;;;;;;5010473;28;20505;-51
2022/10/24 01:53:10;;;;;;;9.37;6.20;;;13.00;22.40;;;;;;5009458;28;20536;-51
2022/10/24 01:55:39;;;;;;;5.37;4.83;;;13.00;21.00;;;;;;5015132;28;20447;-50
2022/10/24 01:58:06;;;;;;;7.23;4.97;;;13.00;20.80;;;;;;5013273;28;20881;-51
2022/10/24 02:00:33;;;;;;;8.07;5.30;;;13.00;20.80;;;;;;5013357;28;20632;-51
2022/10/24 02:03:08;;;;;;;12.40;5.80;;;13.00;72.40;;;;;;5014206;28;20984;-51
2022/10/24 02:05:41;;;;;;;5.93;5.07;;;13.00;20.30;;;;;;5003922;28;20524;-51
2022/10/24 02:08:12;;;;;;;13.20;5.87;;;13.00;73.60;;;;;;5008138;28;20467;-51
2022/10/24 02:10:44;;;;;;;8.17;6.03;;;13.00;82.20;;;;;;5011205;28;20479;-51
2022/10/24 02:13:15;;;;;;;6.40;5.40;;;12.90;89.10;;;;;;5010436;28;20480;-51
2022/10/24 02:15:48;;;;;;;7.37;5.93;;;12.90;84.00;;;;;;5011650;28;20499;-52
2022/10/24 02:18:16;;;;;;;6.50;4.97;;;12.90;91.30;;;;;;5009770;28;20513;-52
2022/10/24 02:20:52;;;;;;;5.80;5.03;;;12.80;88.20;;;;;;5011850;28;20491;-51
2022/10/24 02:23:25;;;;;;;10.30;6.10;;;12.80;92.50;;;;;;5008054;28;20510;-51
2022/10/24 02:25:56;;;;;;;7.53;4.97;;;12.70;95.60;;;;;;5012992;28;20471;-51
2022/10/24 02:28:29;;;;;;;5.67;4.90;;;12.70;99.90;;;;;;5008384;28;20459;-51
2022/10/24 02:30:59;;;;;;;12.37;6.10;;;12.60;99.90;;;;;;5009955;28;20577;-52
2022/10/24 02:33:30;;;;;;;13.60;5.57;;;12.50;99.90;;;;;;5010016;28;20487;-51
2022/10/24 02:35:57;;;;;;;5.10;4.53;;;12.50;99.90;;;;;;5010322;28;20814;-51
2022/10/24 02:38:28;;;;;;;11.70;5.30;;;12.50;86.00;;;;;;5010379;28;20460;-51
2022/10/24 02:40:57;;;;;;;7.90;5.97;;;12.40;74.20;;;;;;5007601;28;20553;-51
2022/10/24 02:43:25;;;;;;;5.90;4.63;;;12.40;84.30;;;;;;5010387;28;20525;-51
2022/10/24 02:45:54;;;;;;;6.80;5.20;;;12.40;88.30;;;;;;5011859;28;21383;-51
2022/10/24 02:48:25;;;;;;;8.83;4.80;;;12.40;81.00;;;;;;5006815;28;20486;-51
2022/10/24 02:50:53;;;;;;;5.60;4.77;;;12.30;75.50;;;;;;5010938;28;20561;-52
2022/10/24 02:53:21;;;;;;;5.30;4.83;;;12.30;86.40;;;;;;5008760;28;20518;-51
2022/10/24 02:55:47;;;;;;;7.33;4.40;;;12.20;82.70;;;;;;5010313;28;20949;-51
2022/10/24 02:58:14;;;;;;;12.20;4.97;;;12.30;22.40;;;;;;5007738;28;20896;-51
2022/10/24 03:00:41;;;;;;;6.83;5.50;;;12.30;23.50;;;;;;5004911;28;20491;-51
2022/10/24 03:03:07;;;;;;;8.57;5.27;;;12.40;23.30;;;;;;5008658;28;20953;-51
2022/10/24 03:05:34;;;;;;;14.90;5.30;;;12.40;25.80;;;;;;5009358;28;20514;-51
2022/10/24 03:08:02;;;;;;;18.30;5.17;;;12.50;28.00;;;;;;5010874;28;20490;-51
2022/10/24 03:10:28;;;;;;;9.13;5.07;;;12.50;23.90;;;;;;5010884;28;20475;-51
2022/10/24 03:12:55;;;;;;;5.67;4.70;;;12.40;22.60;;;;;;5007557;28;21495;-52
2022/10/24 03:15:22;;;;;;;6.67;4.63;;;12.40;22.00;;;;;;5011066;28;20463;-51
2022/10/24 03:17:48;;;;;;;6.37;5.10;;;12.30;21.40;;;;;;5007930;28;20973;-51
2022/10/24 03:20:16;;;;;;;4.67;4.23;;;12.30;20.80;;;;;;5009148;28;20899;-51
2022/10/24 03:22:42;;;;;;;5.30;4.80;;;12.20;21.00;;;;;;5008125;28;20530;-51
2022/10/24 03:25:11;;;;;;;5.43;4.93;;;12.20;23.40;;;;;;5005349;28;20463;-51
2022/10/24 03:27:37;;;;;;;7.17;4.80;;;12.10;21.80;;;;;;5007742;28;20523;-51
2022/10/24 03:30:05;;;;;;;5.73;4.23;;;12.10;22.60;;;;;;5009934;28;20460;-51
2022/10/24 03:32:32;;;;;;;6.00;5.47;;;12.00;21.90;;;;;;5002882;28;20463;-52
2022/10/24 03:34:59;;;;;;;5.50;4.83;;;12.00;26.60;;;;;;5005520;28;20467;-52
2022/10/24 03:37:26;;;;;;;6.63;4.63;;;12.10;26.50;;;;;;5008591;28;20459;-51
2022/10/24 03:39:53;;;;;;;14.23;6.40;;;12.10;30.70;;;;;;5006212;28;20464;-52
2022/10/24 03:42:21;;;;;;;11.10;6.40;;;12.20;28.60;;;;;;5006717;28;20463;-52
2022/10/24 03:44:47;;;;;;;8.03;5.97;;;12.20;27.90;;;;;;5011159;28;20510;-51
2022/10/24 03:47:14;;;;;;;8.83;6.53;;;12.10;27.70;;;;;;5007747;28;20522;-51
2022/10/24 03:49:41;;;;;;;16.10;13.70;;;12.10;27.90;;;;;;5004489;28;21020;-51
2022/10/24 03:52:08;;;;;;;10.50;9.40;;;12.10;29.10;;;;;;5008596;28;20530;-51
2022/10/24 03:54:35;;;;;;;5.47;4.90;;;12.10;28.90;;;;;;5005556;28;21043;-51
2022/10/24 03:57:02;;;;;;;6.77;5.60;;;12.10;28.00;;;;;;5007766;28;20989;-51
2022/10/24 03:59:30;;;;;;;7.80;4.30;;;12.00;28.60;;;;;;5005376;28;20945;-51
2022/10/24 04:01:58;;;;;;;6.37;4.20;;;12.10;32.30;;;;;;5006468;28;20530;-51
2022/10/24 04:04:25;;;;;;;11.50;4.43;;;12.00;33.90;;;;;;5007544;28;20456;-51
2022/10/24 04:06:51;;;;;;;6.70;4.40;;;12.10;33.20;;;;;;5004341;28;20468;-51
2022/10/24 04:09:19;;;;;;;7.00;4.33;;;12.10;29.80;;;;;;5003475;28;20464;-51
2022/10/24 04:11:46;;;;;;;5.00;4.50;;;12.00;32.30;;;;;;5006165;28;20577;-51
2022/10/24 04:14:13;;;;;;;5.90;4.80;;;12.00;33.90;;;;;;5010516;28;20977;-51
2022/10/24 04:16:41;;;;;;;4.60;3.83;;;12.00;35.20;;;;;;5008192;28;20460;-52
2022/10/24 04:19:09;;;;;;;4.47;4.07;;;12.00;34.50;;;;;;5005540;28;21150;-51
2022/10/24 04:21:36;;;;;;;4.50;3.90;;;12.00;38.10;;;;;;5008369;28;20500;-50
2022/10/24 04:24:02;;;;;;;6.10;4.17;;;12.10;40.10;;;;;;5006909;28;21136;-51
2022/10/24 04:26:29;;;;;;;5.83;4.20;;;12.10;34.60;;;;;;5009597;28;20521;-51
2022/10/24 04:28:56;;;;;;;4.43;4.03;;;12.00;35.30;;;;;;5005224;28;20518;-51
2022/10/24 04:31:22;;;;;;;9.47;4.30;;;12.00;33.10;;;;;;5009312;28;20969;-51
2022/10/24 04:33:50;;;;;;;6.10;5.00;;;11.80;30.40;;;;;;5007744;28;20843;-51
2022/10/24 04:36:17;;;;;;;13.70;4.13;;;11.70;31.60;;;;;;5007059;28;20460;-50
2022/10/24 04:38:43;;;;;;;5.33;4.20;;;11.70;33.30;;;;;;5008514;28;20494;-51
2022/10/24 04:41:10;;;;;;;4.50;3.80;;;11.60;31.80;;;;;;5007742;28;21059;-51
2022/10/24 04:43:37;;;;;;;6.60;3.73;;;11.50;34.10;;;;;;5005546;28;20456;-52
2022/10/24 04:46:03;;;;;;;4.63;3.70;;;11.50;32.10;;;;;;5010884;28;20526;-51
2022/10/24 04:48:30;;;;;;;9.90;4.60;;;11.50;34.50;;;;;;5006222;28;20460;-51
2022/10/24 04:50:58;;;;;;;7.97;4.80;;;11.40;34.70;;;;;;5006197;28;20487;-51
2022/10/24 04:53:25;;;;;;;6.90;3.80;;;11.50;41.50;;;;;;5006079;28;20476;-52
2022/10/24 04:55:51;;;;;;;3.47;3.27;;;11.60;46.80;;;;;;5006858;28;20513;-51
2022/10/24 04:58:18;;;;;;;4.17;3.80;;;11.50;39.60;;;;;;5006457;28;20878;-51
2022/10/24 05:00:47;;;;;;;4.10;3.80;;;11.50;39.00;;;;;;5004639;28;20495;-52
2022/10/24 05:03:14;;;;;;;5.00;3.60;;;11.50;45.90;;;;;;5006564;28;20995;-52
2022/10/24 05:05:41;;;;;;;3.97;3.40;;;11.50;42.00;;;;;;5009750;28;20514;-51
2022/10/24 05:08:09;;;;;;;4.70;3.47;;;11.50;41.80;;;;;;5006941;28;21026;-51
2022/10/24 05:10:35;;;;;;;5.27;3.93;;;11.50;49.20;;;;;;5009553;28;20861;-51
2022/10/24 05:13:02;;;;;;;6.23;3.60;;;11.50;41.50;;;;;;5008217;28;20464;-51
2022/10/24 05:15:29;;;;;;;4.73;4.10;;;11.50;40.80;;;;;;5004771;28;20533;-52
2022/10/24 05:17:55;;;;;;;6.90;3.80;;;11.50;48.40;;;;;;5009655;28;20984;-52
2022/10/24 05:20:22;;;;;;;7.20;4.50;;;11.60;53.90;;;;;;5010083;28;20545;-51
2022/10/24 05:22:49;;;;;;;14.33;5.33;;;11.70;50.60;;;;;;5008906;28;20529;-51
2022/10/24 05:25:17;;;;;;;11.17;5.50;;;11.80;54.40;;;;;;5007317;28;20456;-51
2022/10/24 05:27:44;;;;;;;7.93;3.93;;;11.80;52.00;;;;;;5010275;28;21020;-51
2022/10/24 05:30:11;;;;;;;5.60;3.90;;;11.80;48.20;;;;;;5006572;28;20517;-51
2022/10/24 05:32:38;;;;;;;6.10;4.27;;;11.80;45.70;;;;;;5001575;28;20463;-51
2022/10/24 05:35:05;;;;;;;5.70;4.00;;;11.80;47.20;;;;;;5007713;28;20591;-52
2022/10/24 05:37:32;;;;;;;6.77;4.40;;;11.80;50.60;;;;;;5006851;28;20468;-51
2022/10/24 05:39:58;;;;;;;4.57;4.17;;;11.90;54.70;;;;;;5003302;28;20463;-52
2022/10/24 05:42:26;;;;;;;4.77;3.90;;;11.90;52.20;;;;;;5007725;28;20526;-52
2022/10/24 05:44:53;;;;;;;6.03;3.33;;;11.90;51.20;;;;;;5008029;28;20452;-52
2022/10/24 05:47:19;;;;;;;6.73;3.43;;;11.90;53.80;;;;;;5007193;28;20464;-52
2022/10/24 05:49:46;;;;;;;5.73;4.00;;;12.00;54.40;;;;;;5006189;28;20463;-51
2022/10/24 05:52:12;;;;;;;9.27;3.93;;;12.00;56.40;;;;;;5008767;28;20518;-51
2022/10/24 05:54:39;;;;;;;4.70;3.20;;;12.00;52.90;;;;;;5011499;28;20513;-51
2022/10/24 05:57:06;;;;;;;5.43;3.60;;;12.10;54.30;;;;;;5013726;28;20561;-51
2022/10/24 05:59:34;;;;;;;3.37;3.07;;;12.10;55.10;;;;;;5014011;28;20459;-51
2022/10/24 06:02:00;;;;;;;5.20;2.83;;;12.10;54.10;;;;;;5009715;28;20537;-51
2022/10/24 06:04:27;;;;;;;8.60;4.00;;;12.20;55.10;;;;;;5012092;28;20509;-51
2022/10/24 06:06:53;;;;;;;9.93;4.23;;;12.10;52.40;;;;;;5010897;28;20459;-51
2022/10/24 06:09:20;;;;;;;9.13;3.90;;;12.00;45.90;;;;;;5009255;28;20514;-50
2022/10/24 06:11:46;;;;;;;5.90;4.03;;;12.00;44.20;;;;;;5009278;28;20985;-50
2022/10/24 06:14:13;;;;;;;3.67;3.37;;;11.90;42.00;;;;;;5005916;28;20914;-50
2022/10/24 06:16:41;;;;;;;5.60;3.30;;;11.90;43.60;;;;;;5004986;28;20456;-51
2022/10/24 06:19:08;;;;;;;8.03;2.93;;;11.90;46.00;;;;;;5009971;28;20456;-51
2022/10/24 06:21:34;;;;;;;7.45;2.92;;;11.90;47.90;;;;;;5008452;28;20459;-51
2022/10/24 06:24:01;;;;;;;6.73;3.30;;;11.80;45.00;;;;;;5011398;28;20255;-52
2022/10/24 06:26:27;;;;;;;4.73;3.50;;;11.80;46.90;;;;;;5009849;28;20563;-51
2022/10/24 06:28:55;;;;;;;5.00;4.20;;;11.70;41.40;;;;;;5008390;28;20510;-52
2022/10/24 06:31:21;;;;;;;8.93;4.87;;;11.90;47.20;;;;;;5008611;28;20567;-51
2022/10/24 06:33:49;;;;;;;12.83;3.70;;;11.90;45.80;;;;;;5009915;28;20460;-51
2022/10/24 06:36:16;;;;;;;5.73;3.87;;;11.90;45.30;;;;;;5010453;28;20464;-50
2022/10/24 06:38:42;;;;;;;4.80;3.70;;;12.00;52.90;;;;;;5010765;28;20464;-51
2022/10/24 06:41:12;;;;;;;16.07;5.27;;;12.10;53.90;;;;;;5008692;28;20849;-51
2022/10/24 06:43:40;;;;;;;4.70;3.90;;;12.30;56.00;;;;;;5010654;28;20456;-51
2022/10/24 06:46:08;;;;;;;8.13;4.00;;;12.30;53.70;;;;;;5005651;28;20547;-51
2022/10/24 06:48:35;;;;;;;5.67;4.33;;;12.40;55.10;;;;;;5006681;28;20464;-51
2022/10/24 06:51:04;;;;;;;9.37;4.10;;;12.50;50.90;;;;;;5010120;28;20479;-51
2022/10/24 06:53:31;;;;;;;14.37;3.70;;;12.50;49.60;;;;;;5012534;28;20538;-51
2022/10/24 06:55:59;;;;;;;7.00;3.90;;;12.60;51.60;;;;;;5012681;28;20618;-51
2022/10/24 06:58:29;;;;;;;6.23;3.90;;;12.70;55.20;;;;;;5010514;28;20463;-52
2022/10/24 07:00:56;;;;;;;6.00;3.80;;;12.80;52.90;;;;;;5057091;22;20856;-51
2022/10/24 07:03:23;;;;;;;6.00;3.97;;;12.80;48.70;;;;;;5024092;28;20498;-52
2022/10/24 07:05:49;;;;;;;6.03;3.30;;;12.80;47.80;;;;;;5025571;28;20477;-52
2022/10/24 07:08:18;;;;;;;8.63;3.97;;;12.90;49.70;;;;;;5024388;28;20459;-51
2022/10/24 07:10:45;;;;;;;8.77;3.87;;;12.90;47.00;;;;;;5027587;28;20474;-52
2022/10/24 07:13:11;;;;;;;21.87;4.60;;;13.00;48.60;;;;;;5027254;28;20486;-52
2022/10/24 07:15:38;;;;;;;10.10;5.20;;;13.10;47.90;;;;;;5029604;28;21018;-52
2022/10/24 07:18:05;;;;;;;8.87;4.53;;;13.10;46.80;;;;;;5029267;28;20463;-52
2022/10/24 07:20:32;;;;;;;7.40;3.27;;;13.10;45.50;;;;;;5030826;28;20466;-52
2022/10/24 07:22:59;;;;;;;6.43;4.30;;;13.20;43.90;;;;;;5023138;28;20851;-52
2022/10/24 07:25:27;;;;;;;12.87;4.47;;;13.20;44.90;;;;;;5027104;28;20462;-53
2022/10/24 07:27:54;;;;;;;11.93;4.47;;;13.30;41.60;;;;;;5030720;28;20473;-52
2022/10/24 07:30:21;;;;;;;18.67;4.40;;;13.40;40.70;;;;;;5027112;28;20494;-52
2022/10/24 07:32:48;;;;;;;7.43;3.70;;;13.40;35.90;;;;;;5025650;28;20513;-52
2022/10/24 07:35:15;;;;;;;6.10;4.67;;;13.40;32.70;;;;;;5027689;28;20475;-52
2022/10/24 07:37:42;;;;;;;6.30;4.40;;;13.50;32.70;;;;;;5032432;28;20494;-52
2022/10/24 07:40:09;;;;;;;6.37;3.90;;;13.50;27.70;;;;;;5027845;28;20471;-52
2022/10/24 07:42:37;;;;;;;13.23;3.97;;;13.60;27.60;;;;;;5030078;28;20478;-52
2022/10/24 07:45:06;;;;;;;6.97;3.57;;;13.60;23.80;;;;;;5024960;28;20459;-53
2022/10/24 07:47:33;;;;;;;16.77;4.07;;;13.70;20.30;;;;;;5029307;28;20566;-52
2022/10/24 07:50:00;;;;;;;5.90;3.77;;;13.70;96.10;;;;;;5025817;28;20498;-52
2022/10/24 07:52:26;;;;;;;10.37;4.30;;;13.80;99.90;;;;;;5026061;28;20494;-51
2022/10/24 07:54:53;;;;;;;15.57;4.70;;;13.80;99.90;;;;;;5027922;28;20479;-52
2022/10/24 07:57:20;;;;;;;22.37;6.43;;;13.90;99.90;;;;;;5024062;28;20823;-52
2022/10/24 07:59:48;;;;;;;5.30;3.73;;;14.00;99.90;;;;;;5027159;28;21217;-52
2022/10/24 08:02:16;;;;;;;9.47;3.50;;;14.00;99.90;;;;;;5023840;28;20588;-52
2022/10/24 08:04:43;;;;;;;18.27;4.73;;;14.10;99.90;;;;;;5029421;28;20937;-52
2022/10/24 08:07:12;;;;;;;13.50;5.03;;;14.20;99.90;;;;;;5019994;28;20462;-52
2022/10/24 08:09:41;;;;;;;18.30;4.17;;;14.30;99.90;;;;;;5026072;28;20458;-53
2022/10/24 08:12:07;;;;;;;6.83;4.30;;;14.30;99.90;;;;;;5017125;28;20495;-53
2022/10/24 08:14:34;;;;;;;13.63;4.53;;;14.40;99.90;;;;;;5020661;28;21000;-54
2022/10/24 08:17:03;;;;;;;9.70;4.50;;;14.50;99.90;;;;;;5024184;28;20459;-53
2022/10/24 08:19:30;;;;;;;18.20;4.03;;;14.60;99.90;;;;;;5030629;28;20455;-54
2022/10/24 08:21:57;;;;;;;10.30;3.90;;;14.60;99.90;;;;;;5023923;28;20474;-53
2022/10/24 08:24:23;;;;;;;8.67;3.57;;;14.60;99.90;;;;;;5028561;28;20505;-53
2022/10/24 08:26:50;;;;;;;15.33;4.33;;;14.60;99.90;;;;;;5025698;28;20540;-53
2022/10/24 08:29:21;;;;;;;11.90;3.73;;;14.80;99.90;;;;;;5028500;28;20546;-52
2022/10/24 08:31:50;;;;;;;17.37;4.17;;;14.90;99.90;;;;;;5023782;28;20486;-52
2022/10/24 08:34:18;;;;;;;10.83;3.87;;;15.10;99.90;;;;;;5028047;28;20541;-53
2022/10/24 08:36:45;;;;;;;5.07;3.63;;;15.20;99.90;;;;;;5026964;28;20936;-53
2022/10/24 08:39:11;;;;;;;7.90;3.53;;;15.20;99.90;;;;;;5026575;28;20459;-54
2022/10/24 08:41:42;;;;;;;11.70;3.50;;;15.40;99.90;;;;;;5023985;28;20483;-53
2022/10/24 08:44:16;;;;;;;24.33;5.90;;;15.40;47.80;;;;;;5028584;28;20569;-53
2022/10/24 08:46:49;;;;;;;8.13;3.70;;;15.50;69.80;;;;;;5025846;28;20545;-53
2022/10/24 08:49:26;;;;;;;12.50;4.80;;;15.60;56.80;;;;;;5030356;28;20830;-54
2022/10/24 08:51:57;;;;;;;4.40;3.30;;;15.60;70.80;;;;;;5017667;28;20851;-54
2022/10/24 08:54:28;;;;;;;18.80;4.40;;;15.70;82.70;;;;;;5022692;28;20461;-53
2022/10/24 08:56:58;;;;;;;11.47;3.50;;;15.70;89.00;;;;;;5026803;28;20466;-53
2022/10/24 08:59:27;;;;;;;13.07;4.80;;;15.70;99.90;;;;;;5026090;28;20468;-53
2022/10/24 09:01:58;;;;;;;7.27;3.93;;;15.80;99.90;;;;;;5027531;28;20862;-54
2022/10/24 09:04:32;;;;;;;8.13;3.73;;;15.70;99.90;;;;;;5027023;28;20462;-55
2022/10/24 09:06:59;;;;;;;8.40;4.40;;;15.90;99.90;;;;;;5024473;28;20468;-54
2022/10/24 09:09:30;;;;;;;12.30;4.07;;;15.90;99.90;;;;;;5017340;28;20461;-52
2022/10/24 09:12:01;;;;;;;12.13;3.90;;;16.10;99.90;;;;;;5026907;28;20493;-53
2022/10/24 09:14:30;;;;;;;8.17;3.27;;;16.20;99.90;;;;;;5021653;28;20490;-53
2022/10/24 09:17:00;;;;;;;9.13;3.50;;;16.30;99.90;;;;;;5027767;28;20463;-53
2022/10/24 09:19:30;;;;;;;17.33;3.63;;;16.40;99.90;;;;;;5026335;28;20462;-52
2022/10/24 09:21:59;;;;;;;5.70;3.10;;;16.50;99.90;;;;;;5024894;28;20479;-51
2022/10/24 09:24:46;;;;;;;9.33;4.13;;;16.50;99.90;;;;;;5031006;28;20434;-52
2022/10/24 09:27:19;;;;;;;11.20;3.57;;;16.60;99.90;;;;;;5026022;28;20551;-51
2022/10/24 09:29:45;;;;;;;9.43;3.47;;;17.10;99.90;;;;;;5031375;28;20516;-50
2022/10/24 09:32:17;;;;;;;13.03;4.17;;;17.30;99.90;;;;;;5026400;28;21006;-52
2022/10/24 09:34:45;;;;;;;9.33;3.90;;;17.50;34.10;;;;;;5032102;28;20466;-51
2022/10/24 09:37:37;;;;;;;8.63;3.50;;;17.40;45.40;;;;;;5025648;28;20466;-52
2022/10/24 09:40:20;;;;;;;14.33;4.27;;;17.40;37.30;;;;;;5027987;28;20944;-52
2022/10/24 09:42:52;;;;;;;18.50;4.60;;;17.30;32.60;;;;;;5024848;28;20494;-51
2022/10/24 09:45:32;;;;;;;6.23;3.20;;;17.20;35.80;;;;;;5022911;28;20567;-53
2022/10/24 09:48:02;;;;;;;9.23;4.23;;;17.20;30.00;;;;;;5021621;28;20826;-51
2022/10/24 09:50:31;;;;;;;13.33;4.70;;;17.30;36.80;;;;;;5029769;28;20547;-54
2022/10/24 09:52:59;;;;;;;9.70;4.40;;;17.30;42.00;;;;;;5021699;28;20478;-54
2022/10/24 09:55:27;;;;;;;22.37;3.70;;;17.40;55.80;;;;;;5023804;28;20887;-53
2022/10/24 09:57:56;;;;;;;15.87;3.83;;;17.40;52.00;;;;;;5022856;28;20486;-53
2022/10/24 10:00:26;;;;;;;17.03;3.33;;;17.40;58.30;;;;;;5027105;28;20458;-53
2022/10/24 10:03:02;;;;;;;12.00;3.97;;;17.30;52.00;;;;;;5022656;28;20581;-53
2022/10/24 10:05:45;;;;;;;11.67;3.50;;;17.30;53.40;;;;;;5030335;28;20455;-53
2022/10/24 10:08:18;;;;;;;8.93;3.80;;;17.20;55.90;;;;;;5024440;28;22316;-55
2022/10/24 10:10:56;;;;;;;12.93;3.77;;;17.30;45.80;;;;;;5030939;28;20894;-53
2022/10/24 10:13:24;;;;;;;9.00;3.10;;;17.30;46.50;;;;;;5027131;28;20489;-54
2022/10/24 10:15:53;;;;;;;6.10;2.47;;;17.30;47.90;;;;;;5030949;28;20525;-54
2022/10/24 10:18:32;;;;;;;17.80;4.00;;;17.30;47.40;;;;;;5022659;28;20491;-53
2022/10/24 10:21:09;;;;;;;17.60;4.67;;;17.30;46.90;;;;;;5021873;28;20994;-53
2022/10/24 10:23:38;;;;;;;8.17;3.63;;;17.40;56.80;;;;;;5023705;28;20507;-53
2022/10/24 10:26:13;;;;;;;10.77;3.73;;;17.40;57.80;;;;;;5014501;28;20484;-53
2022/10/24 10:28:45;;;;;;;17.77;3.00;;;17.50;58.80;;;;;;5026903;28;20473;-53
2022/10/24 10:31:12;;;;;;;10.73;3.50;;;17.50;73.70;;;;;;5018392;28;20490;-53
2022/10/24 10:33:45;;;;;;;16.60;3.90;;;17.50;68.60;;;;;;5038068;28;20960;-54
2022/10/24 10:36:19;;;;;;;11.10;4.50;;;17.50;78.60;;;;;;5025496;28;20514;-55
2022/10/24 10:38:51;;;;;;;11.50;3.73;;;17.60;73.10;;;;;;5028342;28;20454;-55
2022/10/24 10:41:39;;;;;;;9.17;3.80;;;17.60;79.00;;;;;;5023113;28;20536;-55
2022/10/24 10:44:19;;;;;;;5.70;3.50;;;17.70;83.10;;;;;;5025507;28;20590;-53
2022/10/24 10:46:57;;;;;;;11.70;3.83;;;17.70;87.50;;;;;;5023074;28;20470;-54
2022/10/24 10:49:29;;;;;;;12.73;5.43;;;17.80;93.40;;;;;;5019554;28;20544;-53
2022/10/24 10:52:01;;;;;;;6.57;3.10;;;17.80;92.60;;;;;;5019750;28;20529;-54
2022/10/24 10:54:44;;;;;;;9.70;3.20;;;17.80;99.90;;;;;;5020117;28;20867;-53
2022/10/24 10:57:13;;;;;;;9.40;2.40;;;17.80;99.90;;;;;;5022778;28;21020;-54
2022/10/24 10:59:51;;;;;;;9.47;2.90;;;17.80;99.90;;;;;;5022157;28;20494;-53
2022/10/24 11:02:44;;;;;;;7.40;2.40;;;17.80;97.30;;;;;;5026263;28;20616;-54
2022/10/24 11:05:24;;;;;;;12.63;2.37;;;17.80;95.70;;;;;;5029137;28;20463;-53
2022/10/24 11:08:00;;;;;;;10.60;3.00;;;17.80;99.90;;;;;;5026075;28;20467;-54
2022/10/24 11:10:32;;;;;;;9.40;3.00;;;17.80;99.90;;;;;;5031663;28;20501;-54
2022/10/24 11:13:03;;;;;;;13.03;3.20;;;17.90;99.90;;;;;;5026102;28;20568;-53
2022/10/24 11:15:34;;;;;;;11.43;2.60;;;17.90;99.90;;;;;;5023365;28;20523;-54
2022/10/24 11:18:06;;;;;;;9.30;2.73;;;17.90;99.90;;;;;;5032466;28;20467;-54
2022/10/24 11:20:37;;;;;;;10.20;3.00;;;17.90;99.90;;;;;;5027036;28;20980;-53
2022/10/24 11:23:12;;;;;;;5.60;2.60;;;17.90;99.90;;;;;;5026632;28;21241;-53
2022/10/24 11:25:43;;;;;;;6.33;2.70;;;17.90;99.90;;;;;;5028523;28;20458;-54
2022/10/24 11:28:20;;;;;;;13.40;3.57;;;18.00;99.90;;;;;;5031182;28;21129;-54
2022/10/24 11:30:52;;;;;;;13.93;2.50;;;17.90;99.90;;;;;;5027179;28;20842;-54
2022/10/24 11:33:22;;;;;;;7.03;3.03;;;18.00;99.90;;;;;;5025123;28;20574;-54
2022/10/24 11:36:09;;;;;;;13.63;3.53;;;18.00;99.90;;;;;;5029295;28;20891;-54
2022/10/24 11:38:43;;;;;;;8.97;3.20;;;18.10;99.90;;;;;;5032270;28;20459;-54
2022/10/24 11:41:35;;;;;;;11.50;2.73;;;18.10;99.90;;;;;;5028250;28;20485;-53
2022/10/24 11:44:13;;;;;;;16.97;3.13;;;18.10;99.90;;;;;;5022708;28;20575;-54
2022/10/24 11:46:44;;;;;;;14.73;3.80;;;18.20;99.90;;;;;;5019752;28;20537;-53
2022/10/24 11:49:18;;;;;;;7.10;2.30;;;18.20;99.90;;;;;;5030808;28;20554;-53
2022/10/24 11:51:50;;;;;;;28.73;3.97;;;18.20;99.90;;;;;;5024947;28;20487;-53
2022/10/24 11:54:25;;;;;;;10.40;2.30;;;18.20;99.90;;;;;;5031799;28;20463;-53
2022/10/24 11:56:55;;;;;;;8.13;3.07;;;18.30;99.90;;;;;;5027257;28;20486;-53
2022/10/24 11:59:23;;;;;;;9.73;2.93;;;18.30;99.90;;;;;;5031452;28;20521;-53
2022/10/24 12:02:19;;;;;;;5.37;3.03;;;18.30;99.90;;;;;;5030045;28;20526;-53
2022/10/24 12:05:09;;;;;;;10.93;2.50;;;18.30;99.90;;;;;;5022596;28;20866;-53
2022/10/24 12:08:12;;;;;;;17.40;3.50;;;18.40;99.90;;;;;;5029150;28;20884;-53
2022/10/24 12:11:27;;;;;;;10.20;3.43;;;18.40;99.90;;;;;;5020832;28;20540;-53
2022/10/24 12:14:08;;;;;;;5.27;3.07;;;18.40;99.90;;;;;;5020980;28;20925;-53
2022/10/24 12:16:47;;;;;;;9.93;2.87;;;18.30;1.40;;;;;;5027623;28;20485;-52
2022/10/24 12:19:17;;;;;;;6.67;3.00;;;18.30;99.90;;;;;;5031051;28;20463;-53
2022/10/24 12:21:51;;;;;;;13.10;2.50;;;18.30;99.90;;;;;;5025208;28;20558;-53
2022/10/24 12:24:28;;;;;;;13.77;3.50;;;18.30;99.90;;;;;;5027226;28;20462;-53
2022/10/24 12:26:58;;;;;;;8.03;3.20;;;18.30;99.90;;;;;;5028347;28;20871;-52
2022/10/24 12:29:27;;;;;;;7.87;2.50;;;18.30;99.90;;;;;;5029877;28;20497;-53
2022/10/24 12:31:54;;;;;;;7.50;3.13;;;18.40;99.90;;;;;;5029376;28;20530;-53
2022/10/24 12:34:50;;;;;;;10.03;3.00;;;18.40;99.90;;;;;;5029493;28;20507;-53
2022/10/24 12:37:36;;;;;;;17.10;2.70;;;18.50;99.90;;;;;;5028405;28;20486;-53
2022/10/24 12:40:40;;;;;;;13.40;3.60;;;18.50;99.90;;;;;;5025345;28;20466;-53
2022/10/24 12:43:26;;;;;;;12.13;3.83;;;18.50;99.90;;;;;;5024403;28;20949;-54
2022/10/24 12:45:55;;;;;;;8.97;2.90;;;18.50;99.90;;;;;;5030499;28;20463;-52
2022/10/24 12:48:34;;;;;;;6.03;2.67;;;18.50;99.90;;;;;;5029488;28;20455;-53
2022/10/24 12:51:24;;;;;;;13.23;2.70;;;18.50;99.90;;;;;;5027721;28;20463;-52
2022/10/24 12:54:03;;;;;;;15.33;3.17;;;18.50;99.90;;;;;;5028994;28;20959;-53
2022/10/24 12:56:30;;;;;;;17.57;3.93;;;18.50;99.90;;;;;;5032047;28;20502;-53
2022/10/24 12:59:02;;;;;;;9.10;2.60;;;18.60;99.90;;;;;;5030420;28;20902;-53
2022/10/24 13:01:36;;;;;;;10.67;2.37;;;18.60;99.90;;;;;;5022629;28;20495;-52